Hazleton, Pennsylvania
Current Conditions -  °F | °C
As of 12:15 AM on Saturday 25 Oct 2014 (Local Time) from KHZL Reporting Station
Clear Clear  
Wind Chill: 50°   Ceiling: Unl
Heat Index: 50°   Visibility: 10mi
Dew Point: 27°   Wind: 5mph
Humidity: 40%   Direction: 280°W
Pressure: 29.93"   Gusts: NA
Location:  40.95°N, 75.98°W
Report Text: KHZL 250415Z AUTO 28004KT 10SM CLR 10/M03 A2993 RMK AO2
Loading
Personal Weather Stations






























Interactive Weather Map
Tropical Storm Tracking
New forecast layout! Learn more

10-Day Weather Forecast

Advertisements
Track Severe Weather on mobile